createdAt,value
2018-12-06T00:00:51.099Z,24.20
2018-12-06T00:01:51.064Z,20.70
2018-12-06T00:02:51.032Z,23.10
2018-12-06T00:03:50.999Z,21.10
2018-12-06T00:04:50.966Z,18.00
2018-12-06T00:06:33.284Z,24.00
2018-12-06T00:07:33.047Z,22.40
2018-12-06T00:08:33.013Z,25.10
2018-12-06T00:09:32.987Z,23.10
2018-12-06T00:10:32.950Z,28.50
2018-12-06T00:11:32.915Z,21.10
2018-12-06T00:12:32.887Z,19.50
2018-12-06T00:13:32.853Z,22.60
2018-12-06T00:14:32.820Z,21.90
2018-12-06T00:15:32.791Z,25.80
2018-12-06T00:16:32.753Z,18.50
2018-12-06T00:17:32.726Z,21.50
2018-12-06T00:18:32.689Z,19.80
2018-12-06T00:19:32.655Z,22.20
2018-12-06T00:20:32.629Z,19.20
2018-12-06T00:21:32.594Z,22.10
2018-12-06T00:22:32.559Z,19.10
2018-12-06T00:23:32.525Z,22.10
2018-12-06T00:24:32.492Z,27.20
2018-12-06T00:25:32.477Z,22.00
2018-12-06T00:26:32.430Z,25.90
2018-12-06T00:27:32.394Z,21.70
2018-12-06T00:28:32.412Z,28.20
2018-12-06T00:29:32.532Z,23.50
2018-12-06T00:31:14.646Z,24.90
2018-12-06T00:32:14.412Z,22.90
2018-12-06T00:33:14.579Z,22.30
2018-12-06T00:34:14.348Z,23.30
2018-12-06T00:35:14.320Z,21.70
2018-12-06T00:36:14.281Z,20.20
2018-12-06T00:37:14.251Z,22.80
2018-12-06T00:38:14.215Z,23.90
2018-12-06T00:39:14.183Z,26.30
2018-12-06T00:40:14.149Z,25.80
2018-12-06T00:41:14.116Z,20.80
2018-12-06T00:42:14.083Z,24.60
2018-12-06T00:43:14.050Z,28.40
2018-12-06T00:44:14.017Z,20.30
2018-12-06T00:45:13.985Z,22.90
2018-12-06T00:46:14.155Z,22.60
2018-12-06T00:47:13.922Z,21.70
2018-12-06T00:48:13.891Z,25.50
2018-12-06T00:49:13.853Z,22.40
2018-12-06T00:50:13.822Z,21.50
2018-12-06T00:51:13.788Z,22.40
2018-12-06T00:52:13.754Z,19.50
2018-12-06T00:53:13.724Z,23.20
2018-12-06T00:54:13.691Z,22.80
2018-12-06T00:56:13.639Z,21.10
2018-12-06T00:57:13.593Z,20.40
2018-12-06T00:58:13.569Z,23.70
2018-12-06T00:59:13.527Z,23.70
2018-12-06T01:00:13.494Z,28.70
2018-12-06T01:01:13.471Z,21.20
2018-12-06T01:02:13.433Z,26.80
2018-12-06T01:03:13.917Z,19.80
2018-12-06T01:04:13.377Z,24.20
2018-12-06T01:05:13.343Z,18.00
2018-12-06T01:06:13.504Z,21.30
2018-12-06T01:07:13.267Z,17.60
2018-12-06T01:08:13.249Z,20.80
2018-12-06T01:09:13.210Z,19.40
2018-12-06T01:11:13.136Z,22.00
2018-12-06T01:12:13.110Z,20.60
2018-12-06T01:13:13.070Z,25.20
2018-12-06T01:14:13.048Z,22.30
2018-12-06T01:15:13.004Z,21.90
2018-12-06T01:16:13.186Z,23.60
2018-12-06T01:17:13.145Z,21.00
2018-12-06T01:18:13.126Z,17.20
2018-12-06T01:19:13.077Z,25.50
2018-12-06T01:21:12.819Z,22.30
2018-12-06T01:22:12.790Z,26.40
2018-12-06T01:23:12.745Z,25.90
2018-12-06T01:25:12.690Z,17.40
2018-12-06T01:26:12.659Z,18.40
2018-12-06T01:27:12.616Z,20.60
2018-12-06T01:28:12.598Z,21.30
2018-12-06T01:29:12.562Z,20.70
2018-12-06T01:30:12.521Z,23.00
2018-12-06T01:31:12.501Z,22.20
2018-12-06T01:33:12.738Z,24.20
2018-12-06T01:34:12.398Z,19.70
2018-12-06T01:35:12.359Z,17.10
2018-12-06T01:36:12.321Z,21.50
2018-12-06T01:37:12.302Z,20.90
2018-12-06T01:38:12.260Z,19.70
2018-12-06T01:39:12.242Z,21.60
2018-12-06T01:40:12.193Z,17.80
2018-12-06T01:41:12.161Z,22.20
2018-12-06T01:42:12.676Z,21.70
2018-12-06T01:43:12.110Z,17.70
2018-12-06T01:44:12.075Z,16.90
2018-12-06T01:45:12.049Z,20.20
2018-12-06T01:46:11.999Z,18.70
2018-12-06T01:47:11.979Z,17.40
2018-12-06T01:48:12.136Z,22.60
2018-12-06T01:49:12.307Z,18.50
2018-12-06T01:50:11.883Z,19.90
2018-12-06T01:51:12.052Z,18.10
2018-12-06T01:52:11.816Z,17.30
2018-12-06T01:53:11.786Z,19.90
2018-12-06T01:54:11.945Z,21.50
2018-12-06T01:55:11.723Z,22.30
2018-12-06T01:56:11.690Z,20.40
2018-12-06T01:57:11.961Z,20.70
2018-12-06T01:58:11.623Z,16.00
2018-12-06T01:59:11.591Z,17.20
2018-12-06T02:00:11.558Z,21.30
2018-12-06T02:01:11.526Z,21.00
2018-12-06T02:02:11.493Z,20.00
2018-12-06T02:03:11.486Z,16.30
2018-12-06T02:05:11.588Z,18.50
2018-12-06T02:06:11.363Z,21.70
2018-12-06T02:07:11.324Z,16.30
2018-12-06T02:08:11.299Z,24.40
2018-12-06T02:09:11.271Z,20.50
2018-12-06T02:10:11.247Z,18.10
2018-12-06T02:11:11.405Z,22.40
2018-12-06T02:12:11.161Z,18.30
2018-12-06T02:13:11.343Z,17.70
2018-12-06T02:14:11.099Z,21.70
2018-12-06T02:15:11.065Z,16.50
2018-12-06T02:16:11.045Z,18.10
2018-12-06T02:17:11.416Z,18.90
2018-12-06T02:18:11.170Z,20.30
2018-12-06T02:20:10.914Z,24.50
2018-12-06T02:21:11.393Z,22.40
2018-12-06T02:22:10.853Z,20.40
2018-12-06T02:23:10.818Z,17.50
2018-12-06T02:24:11.180Z,21.90
2018-12-06T02:25:10.755Z,20.80
2018-12-06T02:26:11.030Z,20.80
2018-12-06T02:27:10.681Z,15.40
2018-12-06T02:28:10.650Z,22.60
2018-12-06T02:29:10.631Z,19.30
2018-12-06T02:30:10.595Z,18.70
2018-12-06T02:31:10.562Z,24.40
2018-12-06T02:33:10.504Z,16.60
2018-12-06T02:34:10.454Z,16.40
2018-12-06T02:35:10.425Z,20.10
2018-12-06T02:36:10.402Z,23.40
2018-12-06T02:37:10.675Z,19.10
2018-12-06T02:38:10.340Z,24.30
2018-12-06T02:39:10.305Z,18.10
2018-12-06T02:41:10.230Z,23.20
2018-12-06T02:42:10.208Z,21.90
2018-12-06T02:43:10.179Z,26.80
2018-12-06T02:44:10.142Z,23.40
2018-12-06T02:45:10.418Z,23.90
2018-12-06T02:46:10.079Z,22.90
2018-12-06T02:47:10.047Z,27.20
2018-12-06T02:48:10.021Z,27.90
2018-12-06T02:49:10.290Z,25.40
2018-12-06T02:51:09.916Z,25.50
2018-12-06T02:52:09.889Z,26.10
2018-12-06T02:53:09.855Z,23.70
2018-12-06T02:54:09.811Z,24.10
2018-12-06T02:55:09.792Z,25.50
2018-12-06T02:56:09.756Z,25.10
2018-12-06T02:57:10.030Z,24.40
2018-12-06T02:58:09.692Z,24.40
2018-12-06T02:59:09.647Z,25.10
2018-12-06T03:00:09.628Z,24.90
2018-12-06T03:01:09.614Z,26.60
2018-12-06T03:02:09.561Z,26.60
2018-12-06T03:03:09.732Z,25.60
2018-12-06T03:04:09.695Z,21.90
2018-12-06T03:05:09.771Z,23.40
2018-12-06T03:06:09.434Z,23.20
2018-12-06T03:07:09.386Z,28.90
2018-12-06T03:08:09.356Z,24.50
2018-12-06T03:09:09.340Z,25.90
2018-12-06T03:10:09.307Z,33.00
2018-12-06T03:11:09.471Z,30.60
2018-12-06T03:12:09.224Z,32.90
2018-12-06T03:14:09.181Z,29.10
2018-12-06T03:15:09.146Z,27.00
2018-12-06T03:16:09.312Z,28.80
2018-12-06T03:17:09.279Z,31.30
2018-12-06T03:18:09.049Z,27.50
2018-12-06T03:19:09.001Z,30.40
2018-12-06T03:20:08.983Z,25.90
2018-12-06T03:21:08.944Z,28.20
2018-12-06T03:22:09.114Z,24.80
2018-12-06T03:23:08.879Z,33.90
2018-12-06T03:24:08.848Z,32.80
2018-12-06T03:25:09.017Z,27.70
2018-12-06T03:26:08.772Z,29.70
2018-12-06T03:28:08.721Z,34.50
2018-12-06T03:31:08.624Z,29.90
2018-12-06T03:32:08.578Z,26.50
2018-12-06T03:33:08.557Z,27.60
2018-12-06T03:34:08.530Z,31.30
2018-12-06T03:35:08.496Z,30.80
2018-12-06T03:36:08.656Z,27.20
2018-12-06T03:37:08.414Z,27.40
2018-12-06T03:38:08.401Z,25.60
2018-12-06T03:39:08.362Z,28.00
2018-12-06T03:40:08.316Z,28.80
2018-12-06T03:41:08.287Z,29.50
2018-12-06T03:42:08.274Z,25.90
2018-12-06T03:43:08.442Z,34.60
2018-12-06T03:44:08.199Z,28.90
2018-12-06T03:45:08.165Z,29.10
2018-12-06T03:46:08.137Z,23.90
2018-12-06T03:47:08.312Z,24.80
2018-12-06T03:48:08.378Z,32.20
2018-12-06T03:49:08.059Z,32.10
2018-12-06T03:50:08.005Z,27.20
2018-12-06T03:51:08.179Z,34.00
2018-12-06T03:52:07.944Z,28.00
2018-12-06T03:53:07.901Z,32.70
2018-12-06T03:54:08.183Z,26.90
2018-12-06T03:55:07.845Z,26.50
2018-12-06T03:56:07.819Z,29.30
2018-12-06T03:57:07.782Z,25.30
2018-12-06T03:58:08.160Z,27.80
2018-12-06T03:59:07.723Z,29.30
2018-12-06T04:00:07.695Z,30.50
2018-12-06T04:01:07.640Z,28.20
2018-12-06T04:02:07.623Z,27.10
2018-12-06T04:03:07.594Z,34.60
2018-12-06T04:04:07.556Z,31.90
2018-12-06T04:05:07.528Z,33.90
2018-12-06T04:06:07.478Z,35.70
2018-12-06T04:07:07.462Z,33.40
2018-12-06T04:08:07.428Z,33.40
2018-12-06T04:09:07.383Z,36.00
2018-12-06T04:10:07.568Z,35.30
2018-12-06T04:11:07.637Z,34.30
2018-12-06T04:12:07.488Z,26.30
2018-12-06T04:13:07.571Z,31.70
2018-12-06T04:14:07.436Z,33.10
2018-12-06T04:15:07.191Z,29.80
2018-12-06T04:16:07.168Z,30.30
2018-12-06T04:17:07.137Z,34.30
2018-12-06T04:18:07.417Z,33.00
2018-12-06T04:19:07.078Z,33.10
2018-12-06T04:20:07.028Z,36.50
2018-12-06T04:21:07.314Z,39.80
2018-12-06T04:22:06.963Z,35.00
2018-12-06T04:23:06.943Z,40.90
2018-12-06T04:24:07.215Z,41.10
2018-12-06T04:25:06.879Z,41.00
2018-12-06T04:26:06.848Z,36.10
2018-12-06T04:27:06.802Z,42.10
2018-12-06T04:28:06.770Z,41.70
2018-12-06T04:29:06.753Z,42.60
2018-12-06T04:30:06.759Z,43.40
2018-12-06T04:31:06.683Z,38.90
2018-12-06T04:32:06.646Z,40.50
2018-12-06T04:33:06.610Z,37.70
2018-12-06T04:34:06.596Z,39.20
2018-12-06T04:35:06.565Z,44.40
2018-12-06T04:36:06.512Z,35.70
2018-12-06T04:37:06.492Z,43.80
2018-12-06T04:38:06.458Z,38.10
2018-12-06T04:39:06.432Z,36.90
2018-12-06T04:40:06.382Z,44.50
2018-12-06T04:41:06.369Z,43.50
2018-12-06T04:42:06.737Z,39.20
2018-12-06T04:43:06.289Z,40.10
2018-12-06T04:44:06.271Z,43.10
2018-12-06T04:45:06.438Z,43.40
2018-12-06T04:46:06.188Z,45.40
2018-12-06T04:47:06.375Z,39.00
2018-12-06T04:48:06.136Z,42.20
2018-12-06T04:49:06.306Z,37.90
2018-12-06T04:50:06.072Z,41.30
2018-12-06T04:51:06.027Z,36.00
2018-12-06T04:52:06.005Z,43.30
2018-12-06T04:53:05.976Z,41.10
2018-12-06T04:54:05.928Z,40.00
2018-12-06T04:55:05.918Z,41.20
2018-12-06T04:56:05.875Z,41.90
2018-12-06T04:57:06.035Z,42.90
2018-12-06T04:58:05.815Z,39.90
2018-12-06T04:59:05.780Z,38.30
2018-12-06T05:00:05.747Z,40.00
2018-12-06T05:01:05.714Z,44.00
2018-12-06T05:02:05.885Z,45.60
2018-12-06T05:03:05.651Z,38.40
2018-12-06T05:04:05.807Z,41.30
2018-12-06T05:05:05.573Z,45.00
2018-12-06T05:06:47.894Z,47.00
2018-12-06T05:07:47.655Z,44.70
2018-12-06T05:08:47.824Z,46.60
2018-12-06T05:09:47.590Z,42.90
2018-12-06T05:10:47.556Z,44.60
2018-12-06T05:11:47.522Z,41.20
2018-12-06T05:12:47.699Z,44.50
2018-12-06T05:13:47.463Z,35.40
2018-12-06T05:14:47.427Z,42.70
2018-12-06T05:15:47.393Z,37.80
2018-12-06T05:16:47.365Z,37.50
2018-12-06T05:17:47.329Z,40.20
2018-12-06T05:18:47.295Z,39.60
2018-12-06T05:19:47.262Z,43.00
2018-12-06T05:20:47.240Z,39.10
2018-12-06T05:21:47.201Z,40.20
2018-12-06T05:22:47.169Z,44.20
2018-12-06T05:23:47.136Z,35.30
2018-12-06T05:24:47.100Z,38.20
2018-12-06T05:25:47.085Z,40.90
2018-12-06T05:26:47.037Z,44.00
2018-12-06T05:27:47.005Z,38.40
2018-12-06T05:28:46.972Z,37.40
2018-12-06T05:29:46.939Z,45.20
2018-12-06T05:30:46.907Z,38.60
2018-12-06T05:31:46.875Z,37.20
2018-12-06T05:32:46.841Z,41.10
2018-12-06T05:33:46.814Z,37.60
2018-12-06T05:34:46.777Z,44.60
2018-12-06T05:35:46.744Z,43.20
2018-12-06T05:36:46.713Z,44.50
2018-12-06T05:37:46.679Z,40.50
2018-12-06T05:38:46.649Z,38.60
2018-12-06T05:39:46.615Z,42.30
2018-12-06T05:40:46.582Z,41.20
2018-12-06T05:41:46.552Z,42.60
2018-12-06T05:42:46.518Z,39.50
2018-12-06T05:43:46.489Z,41.50
2018-12-06T05:44:46.459Z,38.30
2018-12-06T05:45:46.426Z,39.50
2018-12-06T05:46:46.390Z,43.40
2018-12-06T05:47:46.357Z,41.30
2018-12-06T05:48:46.327Z,42.90
2018-12-06T05:49:46.293Z,39.60
2018-12-06T05:50:46.260Z,38.80
2018-12-06T05:51:46.227Z,36.80
2018-12-06T05:52:46.197Z,43.20
2018-12-06T05:53:46.163Z,36.10
2018-12-06T05:54:46.133Z,36.50
2018-12-06T05:55:46.105Z,42.60
2018-12-06T05:56:46.073Z,42.30
2018-12-06T05:57:46.036Z,44.30
2018-12-06T05:58:46.006Z,41.30
2018-12-06T05:59:45.969Z,42.60
2018-12-06T06:00:45.949Z,43.40
2018-12-06T06:01:45.954Z,45.90
2018-12-06T06:02:45.884Z,40.90
2018-12-06T06:03:45.886Z,41.80
2018-12-06T06:04:45.809Z,42.80
2018-12-06T06:05:45.778Z,43.80
2018-12-06T06:06:45.745Z,44.40
2018-12-06T06:07:45.717Z,39.10
2018-12-06T06:08:45.681Z,44.90
2018-12-06T06:09:45.650Z,42.60
2018-12-06T06:10:45.616Z,44.00
2018-12-06T06:11:45.584Z,40.20
2018-12-06T06:12:45.553Z,44.20
2018-12-06T06:13:45.523Z,44.20
2018-12-06T06:14:45.491Z,44.40
2018-12-06T06:15:45.458Z,46.30
2018-12-06T06:16:45.423Z,41.90
2018-12-06T06:17:45.395Z,45.30
2018-12-06T06:18:45.359Z,47.00
2018-12-06T06:19:45.327Z,41.10
2018-12-06T06:20:45.296Z,42.90
2018-12-06T06:21:45.265Z,45.00
2018-12-06T06:22:45.232Z,43.70
2018-12-06T06:23:45.282Z,47.50
2018-12-06T06:24:45.166Z,41.20
2018-12-06T06:25:45.136Z,41.10
2018-12-06T06:26:45.103Z,41.90
2018-12-06T06:27:45.070Z,47.60
2018-12-06T06:28:45.040Z,44.90
2018-12-06T06:29:45.006Z,42.70
2018-12-06T06:30:44.978Z,45.90
2018-12-06T06:31:44.943Z,43.50
2018-12-06T06:32:44.912Z,47.20
2018-12-06T06:33:44.879Z,45.40
2018-12-06T06:34:44.850Z,40.60
2018-12-06T06:35:44.818Z,41.70
2018-12-06T06:36:44.784Z,43.40
2018-12-06T06:37:44.751Z,43.50
2018-12-06T06:38:44.720Z,41.80
2018-12-06T06:39:44.687Z,44.30
2018-12-06T06:40:44.655Z,42.80
2018-12-06T06:41:44.624Z,45.60
2018-12-06T06:42:44.607Z,44.30
2018-12-06T06:43:44.559Z,42.80
2018-12-06T06:44:44.528Z,43.10
2018-12-06T06:45:44.496Z,48.80
2018-12-06T06:46:44.466Z,43.90
2018-12-06T06:47:44.432Z,44.30
2018-12-06T06:48:44.400Z,42.00
2018-12-06T06:49:44.370Z,38.10
2018-12-06T06:50:44.337Z,42.00
2018-12-06T06:51:44.305Z,41.60
2018-12-06T06:52:44.273Z,44.70
2018-12-06T06:53:44.251Z,45.90
2018-12-06T06:54:44.211Z,43.70
2018-12-06T06:55:44.181Z,39.60
2018-12-06T06:56:44.146Z,38.90
2018-12-06T06:57:44.116Z,47.90
2018-12-06T06:58:44.083Z,46.20
2018-12-06T06:59:44.050Z,44.50
2018-12-06T07:00:44.036Z,46.60
2018-12-06T07:01:43.991Z,51.20
2018-12-06T07:02:43.959Z,48.20
2018-12-06T07:03:43.924Z,49.30
2018-12-06T07:04:43.896Z,45.90
2018-12-06T07:05:43.862Z,43.90
2018-12-06T07:06:43.829Z,44.00
2018-12-06T07:07:43.852Z,47.00
2018-12-06T07:08:43.767Z,44.80
2018-12-06T07:09:43.738Z,46.30
2018-12-06T07:10:43.704Z,46.30
2018-12-06T07:11:43.676Z,45.10
2018-12-06T07:12:43.642Z,50.20
2018-12-06T07:13:43.613Z,50.10
2018-12-06T07:14:43.578Z,43.40
2018-12-06T07:15:43.547Z,45.10
2018-12-06T07:16:43.512Z,45.90
2018-12-06T07:17:43.483Z,47.50
2018-12-06T07:18:43.449Z,46.30
2018-12-06T07:19:43.417Z,46.40
2018-12-06T07:20:43.389Z,45.30
2018-12-06T07:21:43.356Z,51.70
2018-12-06T07:22:43.323Z,43.20
2018-12-06T07:23:43.302Z,47.90
2018-12-06T07:24:43.265Z,48.20
2018-12-06T07:25:46.485Z,50.60
2018-12-06T07:26:43.263Z,48.70
2018-12-06T07:27:43.164Z,56.20
2018-12-06T07:28:43.134Z,52.40
2018-12-06T07:29:43.106Z,46.60
2018-12-06T07:30:43.071Z,52.20
2018-12-06T07:31:43.043Z,53.70
2018-12-06T07:32:43.010Z,49.70
2018-12-06T07:33:42.975Z,48.40
2018-12-06T07:34:42.946Z,52.40
2018-12-06T07:35:42.926Z,57.50
2018-12-06T07:36:42.880Z,56.10
2018-12-06T07:37:42.849Z,52.90
2018-12-06T07:38:42.818Z,58.60
2018-12-06T07:39:42.786Z,51.90
2018-12-06T07:40:42.755Z,53.60
2018-12-06T07:41:42.725Z,54.60
2018-12-06T07:42:42.692Z,51.20
2018-12-06T07:43:42.659Z,57.90
2018-12-06T07:44:42.630Z,56.30
2018-12-06T07:45:42.596Z,58.50
2018-12-06T07:46:42.567Z,54.10
2018-12-06T07:47:42.534Z,57.50
2018-12-06T07:48:42.502Z,60.00
2018-12-06T07:49:42.471Z,54.20
2018-12-06T07:50:42.441Z,65.20
2018-12-06T07:51:42.409Z,64.00
2018-12-06T07:52:42.381Z,61.80
2018-12-06T07:53:42.345Z,59.90
2018-12-06T07:54:42.321Z,61.30
2018-12-06T07:55:42.282Z,63.70
2018-12-06T07:56:42.251Z,65.30
2018-12-06T07:57:42.218Z,71.30
2018-12-06T07:58:42.190Z,62.30
2018-12-06T07:59:42.161Z,64.50
2018-12-06T08:00:42.123Z,62.40
2018-12-06T08:01:42.092Z,65.30
2018-12-06T08:02:42.061Z,57.50
2018-12-06T08:03:42.031Z,68.70
2018-12-06T08:04:42.000Z,67.00
2018-12-06T08:05:41.968Z,66.00
2018-12-06T08:06:41.935Z,68.50
2018-12-06T08:07:41.905Z,67.80
2018-12-06T08:08:41.873Z,68.90
2018-12-06T08:09:41.841Z,66.40
2018-12-06T08:10:41.808Z,71.50
2018-12-06T08:11:41.776Z,69.80
2018-12-06T08:12:41.744Z,74.00
2018-12-06T08:13:41.715Z,67.50
2018-12-06T08:14:41.684Z,77.80
2018-12-06T08:15:41.648Z,78.40
2018-12-06T08:16:41.625Z,80.70
2018-12-06T08:17:41.591Z,81.40
2018-12-06T08:18:41.560Z,82.20
2018-12-06T08:19:41.524Z,85.60
2018-12-06T08:20:41.495Z,79.90
2018-12-06T08:21:41.465Z,90.50
2018-12-06T08:22:41.523Z,88.00
2018-12-06T08:23:41.399Z,99.10
2018-12-06T08:24:41.366Z,90.30
2018-12-06T08:25:41.340Z,92.60
2018-12-06T08:26:41.306Z,102.50
2018-12-06T08:27:41.371Z,95.70
2018-12-06T08:28:41.245Z,95.90
2018-12-06T08:29:41.208Z,110.00
2018-12-06T08:30:42.180Z,103.30
2018-12-06T08:31:41.145Z,107.70
2018-12-06T08:32:41.117Z,97.40
2018-12-06T08:33:41.087Z,109.60
2018-12-06T08:34:41.051Z,106.40
2018-12-06T08:35:41.020Z,96.10
2018-12-06T08:36:40.986Z,117.30
2018-12-06T08:37:40.962Z,104.30
2018-12-06T08:38:40.924Z,104.50
2018-12-06T08:39:40.894Z,111.90
2018-12-06T08:40:40.861Z,108.70
2018-12-06T08:41:40.829Z,103.90
2018-12-06T08:42:45.587Z,108.10
2018-12-06T08:43:40.766Z,104.80
2018-12-06T08:44:40.735Z,106.70
2018-12-06T08:45:40.705Z,113.60
2018-12-06T08:46:40.675Z,113.90
2018-12-06T08:47:40.639Z,104.10
2018-12-06T08:48:40.612Z,117.20
2018-12-06T08:49:40.580Z,110.60
2018-12-06T08:50:40.545Z,110.90
2018-12-06T08:51:40.513Z,112.50
2018-12-06T08:52:40.483Z,115.00
2018-12-06T08:53:40.451Z,98.40
2018-12-06T08:54:40.424Z,118.30
2018-12-06T08:55:40.391Z,113.60
2018-12-06T08:56:40.367Z,114.20
2018-12-06T08:57:40.325Z,116.90
2018-12-06T08:58:40.298Z,114.40
2018-12-06T08:59:40.262Z,105.90
2018-12-06T09:00:40.231Z,114.10
2018-12-06T09:01:40.200Z,106.80
2018-12-06T09:02:40.171Z,111.70
2018-12-06T09:03:40.140Z,118.20
2018-12-06T09:04:40.107Z,119.70
2018-12-06T09:05:40.084Z,108.90
2018-12-06T09:06:40.051Z,102.10
2018-12-06T09:07:40.012Z,106.50
2018-12-06T09:08:39.984Z,102.90
2018-12-06T09:09:39.951Z,109.60
2018-12-06T09:10:40.732Z,105.70
2018-12-06T09:11:39.889Z,108.10
2018-12-06T09:12:39.860Z,106.20
2018-12-06T09:13:39.834Z,110.70
2018-12-06T09:14:39.797Z,110.00
2018-12-06T09:15:39.764Z,118.20
2018-12-06T09:16:39.733Z,110.60
2018-12-06T09:17:39.709Z,108.70
2018-12-06T09:18:39.684Z,119.30
2018-12-06T09:19:39.646Z,108.40
2018-12-06T09:20:39.607Z,109.50
2018-12-06T09:21:39.610Z,108.20
2018-12-06T09:22:39.546Z,100.00
2018-12-06T09:23:39.523Z,104.60
2018-12-06T09:24:39.485Z,108.70
2018-12-06T09:25:39.455Z,103.00
2018-12-06T09:26:39.434Z,112.10
2018-12-06T09:27:39.394Z,108.20
2018-12-06T09:28:39.367Z,114.80
2018-12-06T09:29:39.331Z,110.20
2018-12-06T09:30:39.302Z,112.20
2018-12-06T09:31:39.278Z,106.70
2018-12-06T09:32:39.238Z,105.70
2018-12-06T09:33:39.209Z,103.80
2018-12-06T09:34:39.179Z,114.70
2018-12-06T09:35:40.663Z,113.20
2018-12-06T09:36:39.113Z,101.00
2018-12-06T09:37:39.088Z,110.90
2018-12-06T09:38:39.052Z,105.80
2018-12-06T09:39:39.020Z,112.90
2018-12-06T09:40:38.990Z,105.80
2018-12-06T09:41:38.959Z,106.40
2018-12-06T09:42:38.930Z,102.80
2018-12-06T09:43:38.899Z,107.40
2018-12-06T09:44:38.867Z,110.70
2018-12-06T09:45:38.844Z,107.90
2018-12-06T09:46:38.806Z,109.90
2018-12-06T09:47:38.774Z,112.60
2018-12-06T09:48:38.748Z,114.90
2018-12-06T09:49:38.718Z,108.90
2018-12-06T09:50:38.702Z,113.70
2018-12-06T09:51:38.655Z,114.70
2018-12-06T09:52:38.632Z,120.30
2018-12-06T09:53:38.593Z,114.70
2018-12-06T09:54:38.562Z,116.50
2018-12-06T09:55:38.529Z,120.30
2018-12-06T09:56:38.511Z,104.70
2018-12-06T09:57:38.471Z,121.40
2018-12-06T09:58:38.446Z,116.40
2018-12-06T09:59:38.421Z,128.00
2018-12-06T10:00:38.377Z,123.00
2018-12-06T10:01:38.348Z,119.20
2018-12-06T10:02:38.317Z,126.70
2018-12-06T10:03:38.284Z,123.20
2018-12-06T10:04:38.255Z,130.80
2018-12-06T10:05:38.224Z,110.40
2018-12-06T10:06:38.197Z,128.80
2018-12-06T10:07:38.164Z,128.70
2018-12-06T10:08:38.133Z,124.60
2018-12-06T10:09:38.104Z,125.50
2018-12-06T10:10:38.073Z,127.50
2018-12-06T10:11:38.042Z,119.10
2018-12-06T10:12:38.038Z,129.60
2018-12-06T10:13:37.981Z,132.90
2018-12-06T10:14:37.965Z,128.00
2018-12-06T10:15:37.934Z,124.50
2018-12-06T10:16:37.894Z,132.60
2018-12-06T10:17:37.861Z,144.10
2018-12-06T10:18:37.833Z,125.50
2018-12-06T10:19:37.800Z,136.20
2018-12-06T10:20:37.770Z,135.30
2018-12-06T10:21:37.739Z,133.60
2018-12-06T10:22:37.713Z,127.30
2018-12-06T10:23:39.289Z,126.70
2018-12-06T10:24:37.648Z,134.70
2018-12-06T10:25:37.622Z,133.90
2018-12-06T10:26:37.589Z,134.80
2018-12-06T10:27:37.558Z,136.10
2018-12-06T10:28:37.533Z,135.40
2018-12-06T10:29:37.505Z,135.70
2018-12-06T10:30:37.469Z,147.50
2018-12-06T10:31:37.436Z,132.50
2018-12-06T10:32:37.407Z,132.90
2018-12-06T10:33:37.376Z,137.50
2018-12-06T10:34:37.348Z,137.80
2018-12-06T10:35:37.318Z,131.00
2018-12-06T10:36:37.284Z,132.60
2018-12-06T10:37:37.267Z,130.80
2018-12-06T10:38:37.229Z,136.40
2018-12-06T10:39:37.197Z,124.90
2018-12-06T10:40:37.171Z,138.20
2018-12-06T10:41:37.137Z,138.50
2018-12-06T10:42:37.106Z,138.90
2018-12-06T10:43:37.077Z,126.10
2018-12-06T10:44:37.044Z,124.10
2018-12-06T10:45:37.015Z,134.90
2018-12-06T10:46:36.986Z,130.80
2018-12-06T10:47:36.953Z,118.90
2018-12-06T10:48:36.924Z,114.90
2018-12-06T10:49:36.894Z,126.90
2018-12-06T10:50:36.865Z,120.00
2018-12-06T10:51:36.835Z,117.40
2018-12-06T10:52:36.804Z,110.10
2018-12-06T10:53:36.775Z,88.00
2018-12-06T10:54:36.745Z,71.50
2018-12-06T10:55:36.713Z,64.50
2018-12-06T10:56:36.696Z,70.10
2018-12-06T10:57:36.655Z,58.10
2018-12-06T10:58:36.626Z,45.80
2018-12-06T10:59:36.597Z,51.10
2018-12-06T11:00:36.564Z,107.20
2018-12-06T11:01:36.539Z,116.40
2018-12-06T11:02:36.707Z,131.00
2018-12-06T11:03:36.483Z,117.10
2018-12-06T11:04:36.460Z,126.20
2018-12-06T11:05:36.414Z,123.70
2018-12-06T11:06:36.387Z,122.00
2018-12-06T11:07:36.356Z,124.60
2018-12-06T11:08:36.325Z,113.80
2018-12-06T11:09:36.304Z,122.20
2018-12-06T11:10:36.266Z,114.00
2018-12-06T11:11:36.236Z,117.40
2018-12-06T11:12:36.207Z,118.30
2018-12-06T11:13:36.176Z,119.90
2018-12-06T11:14:36.154Z,123.20
2018-12-06T11:15:36.149Z,110.70
2018-12-06T11:16:36.086Z,111.00
2018-12-06T11:17:36.058Z,107.40
2018-12-06T11:18:36.046Z,111.50
2018-12-06T11:19:36.001Z,113.60
2018-12-06T11:20:35.972Z,106.10
2018-12-06T11:21:35.940Z,104.50
2018-12-06T11:22:35.911Z,108.80
2018-12-06T11:23:35.879Z,106.60
2018-12-06T11:24:35.848Z,103.50
2018-12-06T11:25:35.820Z,109.50
2018-12-06T11:26:35.789Z,107.70
2018-12-06T11:27:35.758Z,106.80
2018-12-06T11:28:35.737Z,104.30
2018-12-06T11:29:35.705Z,103.80
2018-12-06T11:30:35.687Z,100.60
2018-12-06T11:31:35.644Z,110.30
2018-12-06T11:32:35.613Z,86.80
2018-12-06T11:33:35.581Z,85.30
2018-12-06T11:34:35.552Z,83.20
2018-12-06T11:35:35.522Z,70.70
2018-12-06T11:36:35.492Z,75.90
2018-12-06T11:37:35.465Z,81.40
2018-12-06T11:38:35.433Z,57.20
2018-12-06T11:39:35.402Z,80.20
2018-12-06T11:40:35.374Z,70.70
2018-12-06T11:41:42.772Z,71.30
2018-12-06T11:42:35.316Z,59.80
2018-12-06T11:43:35.285Z,72.30
2018-12-06T11:44:35.254Z,65.10
2018-12-06T11:45:35.230Z,66.60
2018-12-06T11:46:35.205Z,62.80
2018-12-06T11:47:35.165Z,57.40
2018-12-06T11:48:35.139Z,66.20
2018-12-06T11:49:35.122Z,60.60
2018-12-06T11:50:35.116Z,66.10
2018-12-06T11:51:35.048Z,69.50
2018-12-06T11:52:35.018Z,75.60
2018-12-06T11:53:34.990Z,79.50
2018-12-06T11:54:34.959Z,58.80
2018-12-06T11:55:34.932Z,63.20
2018-12-06T11:56:34.904Z,83.60
2018-12-06T11:57:34.872Z,77.80
2018-12-06T11:58:34.841Z,73.60
2018-12-06T11:59:34.814Z,72.10
2018-12-06T12:00:34.782Z,69.50
2018-12-06T12:01:34.774Z,82.60
2018-12-06T12:02:34.722Z,75.30
2018-12-06T12:03:34.692Z,71.30
2018-12-06T12:04:34.664Z,94.70
2018-12-06T12:05:34.633Z,94.50
2018-12-06T12:06:34.606Z,91.50
2018-12-06T12:07:34.580Z,95.30
2018-12-06T12:08:34.545Z,101.20
2018-12-06T12:09:34.519Z,94.20
2018-12-06T12:10:34.486Z,75.10
2018-12-06T12:11:34.455Z,94.20
2018-12-06T12:12:34.429Z,103.70
2018-12-06T12:13:34.400Z,96.70
2018-12-06T12:14:34.370Z,101.20
2018-12-06T12:15:34.340Z,82.70
2018-12-06T12:16:34.310Z,49.70
2018-12-06T12:17:34.280Z,56.80
2018-12-06T12:18:34.248Z,79.10
2018-12-06T12:19:34.218Z,50.80
2018-12-06T12:20:34.190Z,81.60
2018-12-06T12:21:34.166Z,82.10
2018-12-06T12:22:34.132Z,101.30
2018-12-06T12:23:34.102Z,69.30
2018-12-06T12:24:34.071Z,59.00
2018-12-06T12:25:34.043Z,66.60
2018-12-06T12:26:34.011Z,98.50
2018-12-06T12:27:33.981Z,88.20
2018-12-06T12:28:33.954Z,108.80
2018-12-06T12:29:33.921Z,115.20
2018-12-06T12:30:33.893Z,107.70
2018-12-06T12:31:33.868Z,94.70
2018-12-06T12:32:33.832Z,112.60
2018-12-06T12:33:33.803Z,120.60
2018-12-06T12:34:33.773Z,124.50
2018-12-06T12:35:33.745Z,93.70
2018-12-06T12:36:33.714Z,134.30
2018-12-06T12:37:33.685Z,96.70
2018-12-06T12:38:33.654Z,112.70
2018-12-06T12:39:33.625Z,116.80
2018-12-06T12:40:33.600Z,114.40
2018-12-06T12:41:33.571Z,107.10
2018-12-06T12:42:33.540Z,101.50
2018-12-06T12:43:33.506Z,95.60
2018-12-06T12:44:33.481Z,115.90
2018-12-06T12:45:33.449Z,116.60
2018-12-06T12:46:33.418Z,106.80
2018-12-06T12:47:33.388Z,111.50
2018-12-06T12:48:33.358Z,120.80
2018-12-06T12:49:33.327Z,119.30
2018-12-06T12:50:33.301Z,144.00
2018-12-06T12:51:33.268Z,161.60
2018-12-06T12:52:33.238Z,132.10
2018-12-06T12:53:33.212Z,123.60
2018-12-06T12:54:33.187Z,141.70
2018-12-06T12:55:33.149Z,134.30
2018-12-06T12:56:33.120Z,133.90
2018-12-06T12:57:33.092Z,120.70
2018-12-06T12:58:33.061Z,109.10
2018-12-06T12:59:33.031Z,104.40
2018-12-06T13:00:33.000Z,110.20
2018-12-06T13:01:32.973Z,117.30